Time;durP1;ratioP1;P1;durP2;ratioP2;P2;SDS_P1;SDS_P2;PMS_P1;PMS_P2;Temp;Humidity;BMP_temperature;BMP_pressure;BME280_temperature;BME280_humidity;BME280_pressure;Samples;Min_cycle;Max_cycle;Signal;HPM_P1;HPM_P2
2022/03/10 00:00:58;;;;;;;3.60;2.60;;;0.80;91.50;;;;;;5093387;28;20567;-41
2022/03/10 00:03:26;;;;;;;6.30;3.70;;;1.00;91.40;;;;;;5093560;28;20499;-41
2022/03/10 00:05:53;;;;;;;6.10;3.50;;;1.10;91.40;;;;;;5093381;28;20478;-41
2022/03/10 00:08:20;;;;;;;4.40;3.57;;;1.30;91.00;;;;;;5093600;28;20472;-41
2022/03/10 00:10:47;;;;;;;5.37;2.93;;;1.30;90.50;;;;;;5092705;28;20476;-41
2022/03/10 00:13:14;;;;;;;6.37;3.60;;;1.40;90.60;;;;;;5092773;28;20911;-41
2022/03/10 00:15:41;;;;;;;5.40;4.20;;;1.20;90.40;;;;;;5093557;28;20471;-41
2022/03/10 00:18:08;;;;;;;3.80;2.93;;;1.30;90.80;;;;;;5093087;28;20527;-41
2022/03/10 00:20:36;;;;;;;3.80;3.50;;;1.40;90.70;;;;;;5092916;28;20952;-41
2022/03/10 00:23:03;;;;;;;4.37;3.73;;;1.50;90.50;;;;;;5093115;28;20488;-41
2022/03/10 00:25:33;;;;;;;5.97;4.07;;;1.60;90.40;;;;;;5093006;28;20942;-41
2022/03/10 00:28:00;;;;;;;6.10;4.70;;;1.60;90.20;;;;;;5093247;28;20472;-42
2022/03/10 00:30:27;;;;;;;5.10;3.43;;;1.10;89.70;;;;;;5092909;28;20436;-41
2022/03/10 00:32:54;;;;;;;4.77;3.27;;;0.90;90.30;;;;;;5092684;28;20542;-41
2022/03/10 00:35:23;;;;;;;6.37;3.80;;;0.90;90.70;;;;;;5093125;28;20471;-42
2022/03/10 00:37:52;;;;;;;4.70;3.77;;;0.80;90.90;;;;;;5092713;28;20467;-41
2022/03/10 00:40:20;;;;;;;5.80;4.30;;;0.80;91.00;;;;;;5092286;28;20475;-41
2022/03/10 00:42:47;;;;;;;4.97;3.67;;;0.90;91.40;;;;;;5092562;28;20475;-41
2022/03/10 00:45:16;;;;;;;5.67;4.43;;;1.00;91.10;;;;;;5092708;28;20530;-41
2022/03/10 00:47:43;;;;;;;4.57;3.10;;;0.90;91.30;;;;;;5092501;28;20505;-41
2022/03/10 00:50:11;;;;;;;5.40;3.83;;;1.00;91.20;;;;;;5092147;28;20471;-41
2022/03/10 00:52:41;;;;;;;5.80;4.10;;;1.10;91.50;;;;;;5093264;28;20554;-45
2022/03/10 00:55:11;;;;;;;6.80;4.00;;;1.20;91.20;;;;;;5092655;28;20475;-44
2022/03/10 00:57:38;;;;;;;4.10;3.53;;;1.30;91.00;;;;;;5092433;28;20450;-45
2022/03/10 01:00:06;;;;;;;5.57;3.30;;;1.20;90.80;;;;;;5092147;28;20945;-43
2022/03/10 01:02:34;;;;;;;4.73;3.77;;;1.20;90.50;;;;;;5092389;28;20511;-43
2022/03/10 01:05:01;;;;;;;5.07;3.73;;;1.20;90.40;;;;;;5092622;28;20471;-44
2022/03/10 01:07:28;;;;;;;4.90;3.57;;;1.20;90.70;;;;;;5091904;28;20480;-43
2022/03/10 01:09:55;;;;;;;3.27;2.80;;;1.20;90.60;;;;;;5092043;28;20467;-43
2022/03/10 01:12:23;;;;;;;2.93;2.63;;;1.40;90.40;;;;;;5092052;28;21011;-43
2022/03/10 01:14:50;;;;;;;4.43;3.27;;;1.40;90.30;;;;;;5092272;28;20874;-43
2022/03/10 01:17:17;;;;;;;4.37;3.53;;;1.30;90.10;;;;;;5092096;28;20889;-43
2022/03/10 01:19:44;;;;;;;4.40;3.20;;;1.00;90.40;;;;;;5091973;28;20472;-43
2022/03/10 01:22:11;;;;;;;5.43;3.30;;;0.90;90.30;;;;;;5091917;28;20512;-42
2022/03/10 01:24:39;;;;;;;3.57;2.77;;;1.00;90.40;;;;;;5091805;28;20478;-43
2022/03/10 01:27:06;;;;;;;3.57;3.00;;;1.00;90.70;;;;;;5092065;28;20459;-43
2022/03/10 01:29:34;;;;;;;5.90;2.63;;;1.00;90.70;;;;;;5091793;28;20471;-43
2022/03/10 01:32:01;;;;;;;4.27;3.50;;;1.00;90.20;;;;;;5092073;28;20500;-43
2022/03/10 01:34:28;;;;;;;4.50;3.03;;;1.00;90.00;;;;;;5091858;28;20801;-44
2022/03/10 01:36:55;;;;;;;4.13;3.70;;;0.80;90.40;;;;;;5092398;28;20475;-43
2022/03/10 01:39:22;;;;;;;4.27;3.87;;;0.60;90.60;;;;;;5091414;28;20486;-44
2022/03/10 01:41:49;;;;;;;4.43;3.60;;;0.50;90.80;;;;;;5091365;28;20558;-43
2022/03/10 01:44:20;;;;;;;4.27;2.53;;;0.70;91.30;;;;;;5091646;28;20496;-43
2022/03/10 01:46:49;;;;;;;5.20;3.40;;;0.50;91.10;;;;;;5091455;28;20855;-44
2022/03/10 01:49:16;;;;;;;4.17;3.53;;;0.20;91.70;;;;;;5091050;28;20476;-43
2022/03/10 01:51:43;;;;;;;3.93;3.53;;;0.00;92.20;;;;;;5091318;28;21247;-43
2022/03/10 01:54:10;;;;;;;4.73;3.33;;;-0.20;92.00;;;;;;5091823;28;20475;-43
2022/03/10 01:56:39;;;;;;;3.97;2.90;;;-0.40;92.00;;;;;;5091623;28;20727;-43
2022/03/10 01:59:06;;;;;;;3.93;3.40;;;-0.40;92.20;;;;;;5091250;28;20482;-43
2022/03/10 02:01:34;;;;;;;6.40;3.10;;;-0.20;92.30;;;;;;5091236;28;21298;-43
2022/03/10 02:04:03;;;;;;;3.33;2.97;;;0.10;92.60;;;;;;5091365;28;20446;-43
2022/03/10 02:06:30;;;;;;;5.53;3.43;;;0.40;92.30;;;;;;5091769;28;20478;-45
2022/03/10 02:11:42;;;;;;;6.37;4.10;;;0.50;91.00;;;;;;5091429;28;20958;-42
2022/03/10 02:19:39;;;;;;;6.37;4.00;;;-0.10;91.50;;;;;;5091112;28;20418;-43
2022/03/10 02:22:10;;;;;;;4.43;3.47;;;-0.20;91.80;;;;;;5091099;28;21003;-43
2022/03/10 02:24:38;;;;;;;4.50;3.20;;;-0.20;91.90;;;;;;5091093;28;20959;-43
2022/03/10 02:27:14;;;;;;;4.80;3.33;;;0.00;92.00;;;;;;5091153;28;20472;-43
2022/03/10 02:29:43;;;;;;;5.60;4.10;;;0.00;91.80;;;;;;5090966;28;20435;-43
2022/03/10 02:32:10;;;;;;;7.00;5.20;;;0.20;92.00;;;;;;5091288;28;20455;-43
2022/03/10 02:34:37;;;;;;;6.70;4.27;;;0.40;92.00;;;;;;5092546;28;20499;-43
2022/03/10 02:37:04;;;;;;;4.27;3.87;;;0.50;91.80;;;;;;5095100;28;20482;-44
2022/03/10 02:39:33;;;;;;;5.03;3.37;;;0.50;91.50;;;;;;5094823;28;20467;-43
2022/03/10 02:42:00;;;;;;;4.17;3.30;;;0.50;91.00;;;;;;5094656;28;20909;-43
2022/03/10 02:44:27;;;;;;;5.43;3.13;;;0.20;90.90;;;;;;5095074;28;20478;-44
2022/03/10 02:46:54;;;;;;;4.00;3.03;;;0.00;91.10;;;;;;5095119;28;20522;-43
2022/03/10 02:49:21;;;;;;;5.00;3.37;;;-0.30;91.40;;;;;;5094815;28;20555;-43
2022/03/10 02:51:48;;;;;;;3.57;2.97;;;-0.20;91.70;;;;;;5094630;28;20499;-43
2022/03/10 02:54:15;;;;;;;6.30;3.67;;;-0.20;92.00;;;;;;5094987;28;20470;-43
2022/03/10 02:56:43;;;;;;;4.90;3.30;;;-0.40;91.70;;;;;;5094800;28;20467;-43
2022/03/10 02:59:11;;;;;;;4.30;2.90;;;-0.60;92.10;;;;;;5094658;28;20439;-43
2022/03/10 03:01:38;;;;;;;3.97;3.17;;;-0.40;92.60;;;;;;5094564;28;20473;-43
2022/03/10 03:04:06;;;;;;;4.30;3.30;;;-0.20;92.30;;;;;;5094897;28;20478;-43
2022/03/10 03:06:34;;;;;;;4.33;3.63;;;0.10;92.30;;;;;;5094866;28;20443;-43
2022/03/10 03:09:01;;;;;;;4.40;3.30;;;0.20;92.10;;;;;;5094228;28;20448;-43
2022/03/10 03:11:28;;;;;;;4.23;2.70;;;0.10;91.70;;;;;;5094585;28;20526;-43
2022/03/10 03:13:56;;;;;;;5.10;2.77;;;0.20;91.50;;;;;;5094583;28;20431;-43
2022/03/10 03:16:24;;;;;;;2.50;2.27;;;0.20;91.30;;;;;;5094396;28;20451;-43
2022/03/10 03:18:52;;;;;;;3.77;2.53;;;-0.10;91.10;;;;;;5094194;28;20444;-43
2022/03/10 03:21:19;;;;;;;4.03;2.83;;;-0.20;91.80;;;;;;5093955;28;20447;-43
2022/03/10 03:23:46;;;;;;;5.43;3.00;;;0.20;91.60;;;;;;5094224;28;20518;-43
2022/03/10 03:26:14;;;;;;;3.37;2.60;;;0.30;91.20;;;;;;5094159;28;20490;-43
2022/03/10 03:28:41;;;;;;;4.60;3.00;;;0.20;91.00;;;;;;5094140;28;20515;-43
2022/03/10 03:31:09;;;;;;;2.70;2.50;;;0.30;90.90;;;;;;5093845;28;20948;-43
2022/03/10 03:33:37;;;;;;;4.40;3.87;;;0.20;90.80;;;;;;5094143;28;21043;-43
2022/03/10 03:36:04;;;;;;;3.97;3.43;;;-0.10;90.60;;;;;;5093480;28;21086;-43
2022/03/10 03:38:31;;;;;;;3.80;2.93;;;-0.50;90.60;;;;;;5093955;28;20486;-43
2022/03/10 03:40:59;;;;;;;4.07;2.70;;;-0.70;91.20;;;;;;5093512;28;20471;-44
2022/03/10 03:43:26;;;;;;;5.53;3.37;;;-0.80;92.00;;;;;;5093751;28;21023;-43
2022/03/10 03:45:55;;;;;;;4.97;2.80;;;-0.80;92.70;;;;;;5092774;28;20475;-43
2022/03/10 03:48:24;;;;;;;5.10;3.17;;;-0.90;93.10;;;;;;5093536;28;20443;-44
2022/03/10 03:50:51;;;;;;;2.90;2.10;;;-0.80;93.10;;;;;;5093671;28;20482;-43
2022/03/10 03:53:18;;;;;;;3.83;2.63;;;-0.80;92.90;;;;;;5093525;28;20842;-43
2022/03/10 03:55:46;;;;;;;3.70;2.63;;;-0.90;92.70;;;;;;5093712;28;20443;-43
2022/03/10 03:58:13;;;;;;;2.43;2.23;;;-0.90;92.80;;;;;;5093565;28;20470;-43
2022/03/10 04:00:40;;;;;;;4.10;3.20;;;-0.80;93.00;;;;;;5093101;28;20887;-43
2022/03/10 04:03:08;;;;;;;3.10;2.80;;;-0.60;92.90;;;;;;5093330;28;20511;-43
2022/03/10 04:05:37;;;;;;;4.20;3.57;;;-0.50;92.50;;;;;;5093478;28;20446;-43
2022/03/10 04:08:04;;;;;;;3.93;3.37;;;-0.40;92.40;;;;;;5093453;28;20875;-43
2022/03/10 04:10:31;;;;;;;4.40;2.87;;;-0.20;92.30;;;;;;5093330;28;20439;-43
2022/03/10 04:12:58;;;;;;;3.67;3.27;;;0.00;91.80;;;;;;5093227;28;20490;-43
2022/03/10 04:15:25;;;;;;;4.17;2.40;;;0.00;91.70;;;;;;5093089;28;20966;-43
2022/03/10 04:17:52;;;;;;;2.73;2.13;;;0.00;92.00;;;;;;5093287;28;20475;-45
2022/03/10 04:20:19;;;;;;;2.90;2.40;;;0.10;91.70;;;;;;5093059;28;20478;-43
2022/03/10 04:22:48;;;;;;;2.70;2.20;;;0.10;91.40;;;;;;5092940;28;20775;-43
2022/03/10 04:25:14;;;;;;;4.27;2.07;;;0.10;91.00;;;;;;5093061;28;20486;-43
2022/03/10 04:27:41;;;;;;;5.07;2.83;;;0.20;91.00;;;;;;5093102;28;20522;-43
2022/03/10 04:30:09;;;;;;;4.90;2.77;;;0.00;90.60;;;;;;5093024;28;20467;-43
2022/03/10 04:32:43;;;;;;;2.97;2.67;;;-0.70;90.80;;;;;;5093040;28;20518;-43
2022/03/10 04:35:12;;;;;;;4.83;2.93;;;-0.90;91.60;;;;;;5092918;28;20530;-43
2022/03/10 04:37:39;;;;;;;3.07;2.30;;;-0.90;92.10;;;;;;5092477;28;20487;-43
2022/03/10 04:40:08;;;;;;;5.33;2.47;;;-0.80;92.10;;;;;;5092288;28;20443;-43
2022/03/10 04:42:38;;;;;;;3.83;2.50;;;-0.50;92.20;;;;;;5092400;28;20564;-44
2022/03/10 04:45:06;;;;;;;3.47;2.63;;;-0.30;92.00;;;;;;5092674;28;20478;-43
2022/03/10 04:47:33;;;;;;;3.10;2.00;;;-0.10;91.60;;;;;;5092618;28;20523;-43
2022/03/10 04:50:00;;;;;;;3.47;2.30;;;-0.10;91.50;;;;;;5092260;28;20478;-43
2022/03/10 04:52:28;;;;;;;4.20;3.23;;;0.00;91.50;;;;;;5092467;28;20506;-43
2022/03/10 04:54:55;;;;;;;7.00;3.37;;;0.00;91.40;;;;;;5092243;28;20475;-43
2022/03/10 04:57:24;;;;;;;4.60;2.63;;;0.10;91.40;;;;;;5092171;28;20477;-43
2022/03/10 04:59:51;;;;;;;3.37;3.07;;;0.00;91.10;;;;;;5092151;28;20474;-43
2022/03/10 05:02:17;;;;;;;3.40;3.10;;;0.10;91.40;;;;;;5092227;28;20502;-43
2022/03/10 05:04:45;;;;;;;3.40;3.10;;;0.10;91.40;;;;;;5092510;28;20466;-43
2022/03/10 05:07:12;;;;;;;3.70;2.80;;;0.10;91.80;;;;;;5092631;28;20502;-43
2022/03/10 05:09:39;;;;;;;3.63;2.90;;;0.00;91.50;;;;;;5092428;28;20819;-44
2022/03/10 05:12:06;;;;;;;4.80;4.33;;;0.00;91.50;;;;;;5092169;28;20498;-44
2022/03/10 05:14:35;;;;;;;3.83;3.17;;;0.10;91.60;;;;;;5092085;28;20876;-44
2022/03/10 05:17:02;;;;;;;2.30;2.10;;;-0.10;91.10;;;;;;5092138;28;20466;-44
2022/03/10 05:19:29;;;;;;;4.63;2.40;;;-0.10;91.10;;;;;;5092118;28;20786;-44
2022/03/10 05:21:56;;;;;;;2.87;2.17;;;-0.20;90.70;;;;;;5091772;28;20506;-44
2022/03/10 05:24:24;;;;;;;4.17;2.87;;;-0.70;90.90;;;;;;5091712;28;20508;-44
2022/03/10 05:26:51;;;;;;;2.37;2.17;;;-0.60;91.60;;;;;;5091958;28;20442;-44
2022/03/10 05:29:18;;;;;;;2.77;2.20;;;-0.70;91.30;;;;;;5091533;28;20478;-44
2022/03/10 05:31:46;;;;;;;2.90;2.00;;;-0.50;91.60;;;;;;5091661;28;20979;-44
2022/03/10 05:34:13;;;;;;;3.40;2.83;;;-0.40;91.70;;;;;;5091905;28;20476;-44
2022/03/10 05:36:40;;;;;;;4.30;2.17;;;-0.50;91.50;;;;;;5091384;28;20541;-44
2022/03/10 05:39:07;;;;;;;3.40;2.73;;;-0.60;91.70;;;;;;5091474;28;20482;-44
2022/03/10 05:41:34;;;;;;;2.63;2.33;;;-0.80;91.70;;;;;;5092063;28;20873;-44
2022/03/10 05:44:01;;;;;;;2.77;2.17;;;-0.90;92.10;;;;;;5091636;28;20558;-44
2022/03/10 05:46:28;;;;;;;4.20;3.23;;;-0.70;92.40;;;;;;5091560;28;20895;-45
2022/03/10 05:48:56;;;;;;;3.23;2.90;;;-0.70;92.40;;;;;;5091791;28;20439;-44
2022/03/10 05:51:23;;;;;;;3.97;3.57;;;-0.80;92.50;;;;;;5091442;28;20475;-44
2022/03/10 05:53:50;;;;;;;6.57;5.90;;;-0.80;92.60;;;;;;5091938;28;20857;-44
2022/03/10 05:56:17;;;;;;;9.33;7.20;;;-0.90;92.30;;;;;;5091632;28;20482;-44
2022/03/10 05:58:45;;;;;;;4.90;3.73;;;-1.00;92.30;;;;;;5091786;28;20482;-44
2022/03/10 06:01:14;;;;;;;3.50;3.13;;;-1.30;92.10;;;;;;5091302;28;20810;-44
2022/03/10 06:03:41;;;;;;;6.93;5.03;;;-1.60;92.70;;;;;;5091365;28;20460;-45
2022/03/10 06:06:12;;;;;;;7.10;4.37;;;-1.70;93.00;;;;;;5091186;28;20973;-44
2022/03/10 06:08:39;;;;;;;6.10;3.63;;;-1.40;93.20;;;;;;5091871;28;20446;-44
2022/03/10 06:11:07;;;;;;;4.77;3.47;;;-1.10;93.00;;;;;;5094914;28;20489;-43
2022/03/10 06:13:34;;;;;;;3.93;3.60;;;-0.90;93.00;;;;;;5095920;28;20460;-44
2022/03/10 06:16:03;;;;;;;3.80;3.50;;;-0.60;92.60;;;;;;5095589;28;20478;-44
2022/03/10 06:18:31;;;;;;;3.83;3.33;;;-0.40;92.50;;;;;;5095607;28;20490;-44
2022/03/10 06:20:58;;;;;;;5.50;4.73;;;-0.20;92.10;;;;;;5095375;28;20495;-44
2022/03/10 06:23:26;;;;;;;5.90;4.43;;;-0.20;91.90;;;;;;5095707;28;20510;-44
2022/03/10 06:25:53;;;;;;;6.17;4.93;;;-0.30;91.60;;;;;;5095545;28;20453;-44
2022/03/10 06:28:20;;;;;;;6.30;4.40;;;-0.50;91.60;;;;;;5095298;28;20966;-44
2022/03/10 06:30:47;;;;;;;5.67;5.17;;;-0.40;92.10;;;;;;5094994;28;20470;-44
2022/03/10 06:33:14;;;;;;;5.70;5.10;;;-0.40;92.50;;;;;;5094889;28;20983;-44
2022/03/10 06:35:41;;;;;;;4.37;3.90;;;-0.50;92.30;;;;;;5095485;28;20486;-44
2022/03/10 06:38:09;;;;;;;3.50;2.93;;;-0.70;92.20;;;;;;5094908;28;20482;-45
2022/03/10 06:40:38;;;;;;;4.50;4.07;;;-1.00;92.20;;;;;;5094875;28;20440;-44
2022/03/10 06:43:04;;;;;;;3.50;3.20;;;-1.20;92.30;;;;;;5095244;28;20474;-44
2022/03/10 06:45:32;;;;;;;3.10;1.80;;;-1.10;92.70;;;;;;5094922;28;20474;-46
2022/03/10 06:47:59;;;;;;;3.33;2.20;;;-1.10;92.60;;;;;;5095184;28;20526;-44
2022/03/10 06:50:27;;;;;;;2.60;2.17;;;-1.20;92.70;;;;;;5094366;28;20464;-45
2022/03/10 06:52:56;;;;;;;2.60;2.40;;;-1.10;93.00;;;;;;5137601;22;20493;-43
2022/03/10 06:55:23;;;;;;;3.00;2.60;;;-1.00;93.00;;;;;;5054686;28;20952;-42
2022/03/10 06:57:52;;;;;;;3.43;2.07;;;-0.80;93.10;;;;;;5054673;28;20861;-44
2022/03/10 07:00:20;;;;;;;3.33;2.40;;;-0.70;92.70;;;;;;5054341;28;20455;-42
2022/03/10 07:02:47;;;;;;;3.00;2.30;;;-0.70;92.70;;;;;;5054411;28;20980;-43
2022/03/10 07:05:14;;;;;;;4.70;3.27;;;-0.50;92.90;;;;;;5054386;28;20488;-42
2022/03/10 07:07:41;;;;;;;4.97;3.60;;;-0.50;92.90;;;;;;5054566;28;20469;-43
2022/03/10 07:10:09;;;;;;;5.03;3.80;;;-0.50;92.60;;;;;;5054383;28;20443;-42
2022/03/10 07:12:36;;;;;;;4.17;3.33;;;-0.30;92.90;;;;;;5054091;28;20461;-42
2022/03/10 07:15:05;;;;;;;3.60;2.73;;;-0.30;92.60;;;;;;5054071;28;20448;-42
2022/03/10 07:17:32;;;;;;;2.60;2.20;;;0.00;92.20;;;;;;5054226;28;20484;-42
2022/03/10 07:19:59;;;;;;;2.53;2.20;;;0.10;91.90;;;;;;5053928;28;20469;-42
2022/03/10 07:22:26;;;;;;;3.43;2.67;;;0.20;91.50;;;;;;5054161;28;20468;-43
2022/03/10 07:24:53;;;;;;;4.37;2.83;;;0.20;91.30;;;;;;5052276;28;21001;-42
2022/03/10 07:27:20;;;;;;;3.57;3.03;;;0.30;91.50;;;;;;5053951;28;20479;-44
2022/03/10 07:29:47;;;;;;;7.47;4.83;;;0.20;91.40;;;;;;5054003;28;20484;-43
2022/03/10 07:32:15;;;;;;;8.23;5.00;;;0.10;91.30;;;;;;5053858;28;20532;-42
2022/03/10 07:34:44;;;;;;;4.50;3.60;;;-0.20;91.90;;;;;;5053802;28;20870;-42
2022/03/10 07:37:11;;;;;;;3.73;3.43;;;-0.40;92.50;;;;;;5053603;28;20445;-42
2022/03/10 07:39:38;;;;;;;3.57;2.53;;;-0.40;92.90;;;;;;5053687;28;20480;-42
2022/03/10 07:42:06;;;;;;;2.67;2.27;;;-0.30;92.40;;;;;;5052886;28;20536;-44
2022/03/10 07:44:33;;;;;;;2.50;2.13;;;-0.10;92.70;;;;;;5053315;28;20537;-42
2022/03/10 07:47:00;;;;;;;7.23;4.20;;;-0.10;92.00;;;;;;5053181;28;20862;-43
2022/03/10 07:49:29;;;;;;;8.07;5.20;;;-0.30;92.20;;;;;;5053487;28;20437;-42
2022/03/10 07:51:56;;;;;;;8.80;6.33;;;-0.50;93.30;;;;;;5053695;28;20445;-43
2022/03/10 07:54:23;;;;;;;9.17;7.07;;;-0.70;93.20;;;;;;5053788;28;20881;-43
2022/03/10 07:56:50;;;;;;;14.37;8.20;;;-0.90;93.80;;;;;;5053625;28;20441;-43
2022/03/10 07:59:17;;;;;;;9.10;7.80;;;-1.30;94.70;;;;;;5052991;28;20472;-42
2022/03/10 08:01:44;;;;;;;9.30;7.90;;;-1.60;95.20;;;;;;5053220;28;20448;-42
2022/03/10 08:04:11;;;;;;;12.50;8.47;;;-1.60;95.40;;;;;;5053295;28;20567;-42
2022/03/10 08:06:39;;;;;;;13.20;8.80;;;-1.80;95.70;;;;;;5053639;28;20476;-42
2022/03/10 08:09:06;;;;;;;7.60;6.87;;;-1.90;96.20;;;;;;5053302;28;20893;-43
2022/03/10 08:11:34;;;;;;;5.93;5.20;;;-1.80;96.30;;;;;;5053393;28;20470;-42
2022/03/10 08:14:00;;;;;;;4.53;4.13;;;-1.60;96.30;;;;;;5052378;28;20497;-42
2022/03/10 08:16:27;;;;;;;5.53;3.57;;;-1.40;95.90;;;;;;5052887;28;20480;-43
2022/03/10 08:18:54;;;;;;;4.93;3.57;;;-1.10;95.30;;;;;;5053072;28;20480;-41
2022/03/10 08:21:21;;;;;;;7.07;5.30;;;-1.00;95.30;;;;;;5053161;28;20481;-42
2022/03/10 08:23:50;;;;;;;8.90;5.00;;;-0.80;95.20;;;;;;5052790;28;20541;-42
2022/03/10 08:26:18;;;;;;;6.43;4.70;;;-0.50;95.30;;;;;;5052821;28;20793;-42
2022/03/10 08:28:50;;;;;;;7.60;5.40;;;-0.40;94.70;;;;;;5052814;28;20829;-42
2022/03/10 08:31:18;;;;;;;5.67;4.40;;;-0.20;95.10;;;;;;5053031;28;20484;-43
2022/03/10 08:33:45;;;;;;;5.00;3.97;;;-0.20;95.00;;;;;;5051998;28;20897;-43
2022/03/10 08:36:12;;;;;;;6.57;3.10;;;-0.10;94.90;;;;;;5052536;28;20445;-43
2022/03/10 08:38:39;;;;;;;3.40;2.73;;;0.00;94.10;;;;;;5052669;28;20886;-42
2022/03/10 08:41:07;;;;;;;2.97;2.63;;;0.00;93.60;;;;;;5052569;28;20871;-43
2022/03/10 08:43:34;;;;;;;8.60;4.00;;;0.20;93.30;;;;;;5052463;28;20513;-42
2022/03/10 08:46:02;;;;;;;4.13;3.73;;;0.30;92.80;;;;;;5052459;28;20441;-43
2022/03/10 08:48:31;;;;;;;5.50;4.17;;;0.60;92.50;;;;;;5052434;28;20446;-42
2022/03/10 08:50:59;;;;;;;6.37;4.00;;;0.70;92.40;;;;;;5052068;28;20452;-43
2022/03/10 08:53:26;;;;;;;5.47;4.97;;;0.90;92.60;;;;;;5052059;28;20501;-43
2022/03/10 08:55:53;;;;;;;5.10;4.60;;;1.10;92.40;;;;;;5052214;28;20476;-43
2022/03/10 08:58:21;;;;;;;7.30;4.20;;;1.30;92.60;;;;;;5052363;28;20469;-43
2022/03/10 09:00:48;;;;;;;5.50;3.80;;;1.50;92.30;;;;;;5051972;28;20484;-43
2022/03/10 09:03:15;;;;;;;5.57;4.10;;;1.50;92.50;;;;;;5051820;28;20508;-43
2022/03/10 09:05:44;;;;;;;5.43;3.43;;;1.60;92.30;;;;;;5051366;28;20572;-43
2022/03/10 09:08:11;;;;;;;5.50;3.90;;;1.70;92.00;;;;;;5052121;28;20474;-43
2022/03/10 09:10:38;;;;;;;3.80;3.13;;;1.80;91.70;;;;;;5051197;28;20469;-43
2022/03/10 09:13:05;;;;;;;3.73;2.97;;;1.60;91.40;;;;;;5050225;28;20898;-44
2022/03/10 09:15:35;;;;;;;4.00;3.23;;;1.60;91.50;;;;;;5050317;28;20939;-43
2022/03/10 09:18:02;;;;;;;5.57;4.00;;;1.60;92.40;;;;;;5051180;28;20446;-43
2022/03/10 09:20:29;;;;;;;3.30;2.93;;;1.70;92.90;;;;;;5052956;28;20511;-42
2022/03/10 09:22:56;;;;;;;3.13;2.70;;;1.70;92.20;;;;;;5051249;28;20494;-42
2022/03/10 09:25:23;;;;;;;4.53;3.60;;;1.80;92.30;;;;;;5051348;28;20851;-43
2022/03/10 09:27:50;;;;;;;7.20;4.20;;;2.00;92.60;;;;;;5051840;28;20485;-43
2022/03/10 09:30:19;;;;;;;3.67;3.37;;;2.10;92.70;;;;;;5051427;28;20485;-43
2022/03/10 09:32:47;;;;;;;4.83;4.00;;;2.30;93.00;;;;;;5051713;28;20465;-43
2022/03/10 09:35:18;;;;;;;5.83;3.57;;;2.50;92.30;;;;;;5049909;28;20977;-43
2022/03/10 09:37:45;;;;;;;6.30;4.63;;;2.60;91.80;;;;;;5051003;28;20452;-44
2022/03/10 09:40:13;;;;;;;6.90;4.10;;;2.70;92.80;;;;;;5050899;28;20476;-41
2022/03/10 09:42:40;;;;;;;3.93;2.87;;;2.90;92.70;;;;;;5051502;28;20253;-43
2022/03/10 09:45:10;;;;;;;3.20;2.90;;;3.00;92.70;;;;;;5050859;28;20565;-44
2022/03/10 09:47:39;;;;;;;3.87;3.40;;;3.20;92.20;;;;;;5051216;28;20472;-44
2022/03/10 09:50:10;;;;;;;4.00;2.90;;;3.30;91.60;;;;;;5049391;28;20812;-43
2022/03/10 09:52:37;;;;;;;3.43;3.03;;;3.40;90.90;;;;;;5050661;28;20989;-42
2022/03/10 09:55:06;;;;;;;3.83;2.97;;;3.60;90.40;;;;;;5050953;28;20480;-43
2022/03/10 09:57:34;;;;;;;3.47;3.17;;;3.80;90.60;;;;;;5050752;28;20452;-42
2022/03/10 10:00:01;;;;;;;5.13;2.53;;;4.00;90.60;;;;;;5050903;28;20441;-43
2022/03/10 10:02:29;;;;;;;3.80;3.37;;;4.10;90.20;;;;;;5051034;28;20993;-44
2022/03/10 10:04:56;;;;;;;5.60;3.70;;;4.20;90.50;;;;;;5051355;28;20484;-43
2022/03/10 10:07:27;;;;;;;3.00;2.80;;;4.30;90.50;;;;;;5050648;28;20448;-43
2022/03/10 10:09:56;;;;;;;4.70;3.60;;;4.50;90.10;;;;;;5049452;28;20487;-43
2022/03/10 10:12:26;;;;;;;5.00;4.00;;;4.60;89.60;;;;;;5050556;28;20465;-43
2022/03/10 10:14:54;;;;;;;5.27;3.27;;;4.70;89.80;;;;;;5050876;28;20445;-43
2022/03/10 10:17:29;;;;;;;5.40;3.23;;;4.80;89.30;;;;;;5050749;28;20445;-43
2022/03/10 10:19:58;;;;;;;4.30;3.03;;;5.00;88.80;;;;;;5050745;28;20524;-43
2022/03/10 10:22:28;;;;;;;4.80;3.73;;;5.20;86.60;;;;;;5050973;28;20499;-43
2022/03/10 10:24:57;;;;;;;5.20;2.90;;;5.30;85.00;;;;;;5051025;28;20958;-43
2022/03/10 10:27:26;;;;;;;6.47;3.77;;;5.40;86.80;;;;;;5051154;28;20527;-43
2022/03/10 10:29:54;;;;;;;3.60;3.10;;;5.50;85.50;;;;;;5051024;28;20459;-43
2022/03/10 10:32:27;;;;;;;4.90;2.63;;;5.50;83.90;;;;;;5050998;28;20493;-43
2022/03/10 10:35:09;;;;;;;4.77;2.90;;;5.60;81.10;;;;;;5051016;28;20868;-43
2022/03/10 10:37:39;;;;;;;3.87;2.50;;;5.70;84.10;;;;;;5050859;28;20484;-43
2022/03/10 10:40:07;;;;;;;4.77;3.03;;;5.90;81.60;;;;;;5050391;28;20502;-43
2022/03/10 10:42:37;;;;;;;3.63;2.87;;;6.00;79.60;;;;;;5050637;28;20493;-43
2022/03/10 10:45:28;;;;;;;3.77;3.10;;;6.20;80.60;;;;;;5050425;28;21227;-43
2022/03/10 10:48:03;;;;;;;3.60;2.80;;;6.30;80.00;;;;;;5051174;28;20445;-43
2022/03/10 10:50:31;;;;;;;3.80;3.40;;;6.30;80.40;;;;;;5050153;28;21006;-43
2022/03/10 10:53:00;;;;;;;4.93;3.47;;;6.50;80.10;;;;;;5050632;28;20998;-43
2022/03/10 10:55:35;;;;;;;3.47;2.80;;;6.60;80.80;;;;;;5051122;28;20959;-43
2022/03/10 10:58:06;;;;;;;3.93;3.37;;;6.50;78.50;;;;;;5054330;28;20867;-43
2022/03/10 11:00:43;;;;;;;4.23;3.80;;;6.70;80.60;;;;;;5052798;28;20867;-43
2022/03/10 11:03:24;;;;;;;5.83;3.93;;;6.90;79.80;;;;;;5053595;28;20467;-43
2022/03/10 11:05:52;;;;;;;24.40;5.83;;;7.00;79.40;;;;;;5054051;28;21012;-43
2022/03/10 11:08:22;;;;;;;6.80;3.77;;;7.00;79.00;;;;;;5053975;28;20472;-43
2022/03/10 11:10:50;;;;;;;4.30;3.80;;;7.10;79.60;;;;;;5053927;28;20469;-43
2022/03/10 11:13:17;;;;;;;4.70;3.47;;;7.20;81.30;;;;;;5054086;28;20572;-43
2022/03/10 11:15:45;;;;;;;3.27;2.87;;;6.90;81.20;;;;;;5053605;28;20520;-43
2022/03/10 11:18:13;;;;;;;4.07;3.67;;;6.90;81.80;;;;;;5054270;28;20472;-43
2022/03/10 11:20:45;;;;;;;4.40;4.00;;;7.20;81.10;;;;;;5054016;28;20473;-43
2022/03/10 11:23:21;;;;;;;6.13;3.57;;;7.20;79.40;;;;;;5054425;28;20489;-43
2022/03/10 11:25:56;;;;;;;5.33;3.67;;;7.30;79.40;;;;;;5054080;28;20560;-43
2022/03/10 11:28:26;;;;;;;5.20;4.20;;;7.30;77.90;;;;;;5054084;28;20480;-43
2022/03/10 11:30:56;;;;;;;5.00;3.47;;;7.40;76.30;;;;;;5042066;28;20441;-43
2022/03/10 11:33:31;;;;;;;5.37;3.37;;;7.50;76.50;;;;;;5042635;28;20903;-44
2022/03/10 11:35:58;;;;;;;4.60;3.87;;;7.70;76.40;;;;;;5041941;28;20461;-43
2022/03/10 11:38:49;;;;;;;5.70;3.80;;;7.70;77.70;;;;;;5044304;28;20445;-43
2022/03/10 11:41:18;;;;;;;6.20;4.30;;;7.70;77.40;;;;;;5043783;28;20465;-43
2022/03/10 11:43:56;;;;;;;4.50;4.10;;;7.70;76.80;;;;;;5040505;28;20539;-43
2022/03/10 11:46:25;;;;;;;6.50;4.30;;;7.70;77.50;;;;;;5041585;28;20470;-44
2022/03/10 11:49:06;;;;;;;5.20;3.70;;;7.70;79.10;;;;;;5037756;28;20442;-40
2022/03/10 11:51:52;;;;;;;5.20;3.73;;;7.80;78.60;;;;;;5031692;28;20465;-43
2022/03/10 11:54:21;;;;;;;6.30;3.73;;;8.00;77.90;;;;;;5030901;28;20470;-44
2022/03/10 11:57:08;;;;;;;4.00;3.20;;;7.90;81.10;;;;;;5031501;28;20868;-43
2022/03/10 11:59:49;;;;;;;3.47;3.17;;;8.00;78.70;;;;;;5032609;28;20752;-43
2022/03/10 12:02:44;;;;;;;4.70;3.70;;;8.10;78.70;;;;;;5032971;28;20476;-43
2022/03/10 12:05:13;;;;;;;4.30;3.30;;;8.20;79.10;;;;;;5033352;28;20979;-43
2022/03/10 12:07:44;;;;;;;8.80;3.50;;;8.30;79.10;;;;;;5032443;28;20484;-44
2022/03/10 12:10:14;;;;;;;6.50;3.83;;;8.20;69.30;;;;;;5033111;28;20871;-43
2022/03/10 12:12:45;;;;;;;4.97;3.40;;;8.10;71.30;;;;;;5032211;28;20466;-44
2022/03/10 12:15:49;;;;;;;5.50;3.53;;;8.00;73.50;;;;;;5031271;28;20944;-43
2022/03/10 12:18:42;;;;;;;4.60;3.30;;;8.00;73.00;;;;;;5031830;28;20453;-43
2022/03/10 12:21:18;;;;;;;8.33;3.53;;;8.00;78.30;;;;;;5031408;28;20449;-43
2022/03/10 12:23:53;;;;;;;5.17;3.80;;;8.00;79.60;;;;;;5031495;28;20990;-43
2022/03/10 12:26:28;;;;;;;6.10;4.00;;;8.30;78.40;;;;;;5031387;28;20560;-45
2022/03/10 12:28:57;;;;;;;5.80;3.43;;;8.30;69.80;;;;;;5032517;28;20876;-43
2022/03/10 12:31:27;;;;;;;4.40;3.80;;;8.30;71.10;;;;;;5032939;28;20493;-43
2022/03/10 12:33:57;;;;;;;5.00;3.60;;;8.40;74.00;;;;;;5032903;28;20466;-43
2022/03/10 12:36:35;;;;;;;4.17;3.60;;;8.70;73.10;;;;;;5032330;28;20537;-43
2022/03/10 12:39:05;;;;;;;3.57;3.23;;;8.80;70.00;;;;;;5032674;28;20442;-44
2022/03/10 12:41:34;;;;;;;5.17;3.57;;;8.70;70.70;;;;;;5032529;28;20999;-44
2022/03/10 12:44:04;;;;;;;4.20;3.20;;;8.70;74.80;;;;;;5032342;28;20505;-43
2022/03/10 12:46:32;;;;;;;4.07;3.30;;;8.70;74.30;;;;;;5032395;28;20936;-45
2022/03/10 12:49:08;;;;;;;4.90;4.07;;;8.60;68.30;;;;;;5032314;28;20446;-42
2022/03/10 12:51:36;;;;;;;3.83;3.40;;;8.60;70.80;;;;;;5032326;28;20488;-43
2022/03/10 12:54:05;;;;;;;7.47;4.00;;;8.60;68.50;;;;;;5083407;22;20565;-46
2022/03/10 12:56:46;;;;;;;4.97;3.83;;;8.70;70.60;;;;;;5072472;28;20468;-45
2022/03/10 12:59:24;;;;;;;4.50;3.40;;;8.70;73.40;;;;;;5071938;28;20531;-45
2022/03/10 13:01:51;;;;;;;4.60;4.10;;;8.70;72.70;;;;;;5071928;28;20475;-45
2022/03/10 13:04:18;;;;;;;5.63;3.73;;;8.70;71.10;;;;;;5071583;28;21020;-45
2022/03/10 13:06:47;;;;;;;5.87;4.07;;;8.60;73.00;;;;;;5072245;28;20568;-45
2022/03/10 13:09:22;;;;;;;5.87;4.37;;;8.70;73.00;;;;;;5071753;28;20886;-45